METAR Data
IDs: Format: Raw Decoded Include TAF

Data at: 0315 UTC 25 Feb 2021

LIPZ 250250Z 31002KT CAVOK 08/02 Q1031 NOSIG